createdAt,value
2022-12-12T07:43:26.423Z,19.80
2022-12-12T07:45:54.601Z,19.27
2022-12-12T07:48:21.980Z,20.27
2022-12-12T07:50:50.238Z,19.07
2022-12-12T07:53:17.548Z,19.37
2022-12-12T07:55:44.965Z,20.57
2022-12-12T07:58:12.238Z,20.03
2022-12-12T08:00:39.554Z,20.40
2022-12-12T08:03:06.839Z,20.07
2022-12-12T08:05:34.158Z,21.10
2022-12-12T08:08:01.572Z,20.20
2022-12-12T08:10:28.868Z,18.63
2022-12-12T08:12:56.189Z,18.73
2022-12-12T08:15:23.536Z,19.70
2022-12-12T08:17:50.814Z,20.17
2022-12-12T08:20:18.277Z,19.77
2022-12-12T08:22:45.553Z,18.50
2022-12-12T08:25:12.995Z,20.50
2022-12-12T08:27:40.953Z,19.63
2022-12-12T08:30:09.102Z,17.60
2022-12-12T08:32:36.770Z,18.93
2022-12-12T08:35:04.424Z,18.47
2022-12-12T08:37:31.689Z,17.53
2022-12-12T08:39:58.976Z,18.70
2022-12-12T08:42:26.258Z,18.90
2022-12-12T08:44:53.647Z,18.10
2022-12-12T08:47:20.969Z,19.37
2022-12-12T08:49:47.885Z,18.27
2022-12-12T08:52:15.449Z,17.77
2022-12-12T08:54:42.799Z,16.00
2022-12-12T08:57:11.225Z,17.60
2022-12-12T08:59:38.528Z,16.87
2022-12-12T09:02:06.056Z,18.23
2022-12-12T09:04:35.193Z,17.43
2022-12-12T09:07:08.109Z,16.37
2022-12-12T09:09:35.969Z,16.10
2022-12-12T09:12:03.240Z,16.67
2022-12-12T09:14:30.568Z,15.43
2022-12-12T09:16:57.834Z,14.43
2022-12-12T09:19:25.298Z,14.87
2022-12-12T09:21:52.672Z,14.73
2022-12-12T09:24:20.156Z,13.93
2022-12-12T09:26:47.423Z,12.47
2022-12-12T09:29:14.787Z,13.40
2022-12-12T09:31:42.179Z,12.47
2022-12-12T09:34:09.541Z,12.37
2022-12-12T09:36:36.826Z,12.77
2022-12-12T09:39:04.401Z,13.17
2022-12-12T09:41:31.987Z,12.70
2022-12-12T09:44:04.223Z,13.67
2022-12-12T09:46:51.939Z,12.40
2022-12-12T09:49:43.714Z,13.20
2022-12-12T09:52:13.450Z,12.63
2022-12-12T09:54:40.757Z,12.53
2022-12-12T09:57:10.924Z,11.90
2022-12-12T09:59:52.590Z,12.60
2022-12-12T10:02:23.118Z,11.97
2022-12-12T10:04:53.565Z,11.13
2022-12-12T10:07:24.307Z,12.07
2022-12-12T10:10:03.757Z,11.03
2022-12-12T10:12:32.243Z,11.10
2022-12-12T10:15:01.260Z,11.97
2022-12-12T10:17:43.431Z,10.80
2022-12-12T10:20:14.361Z,11.40
2022-12-12T10:22:46.855Z,10.73
2022-12-12T10:25:40.675Z,10.00
2022-12-12T10:28:18.831Z,9.67
2022-12-12T10:30:55.356Z,9.93
2022-12-12T10:33:45.541Z,10.40
2022-12-12T10:36:19.935Z,9.87
2022-12-12T10:39:00.487Z,9.40
2022-12-12T10:41:40.983Z,8.80
2022-12-12T10:44:20.537Z,9.33
2022-12-12T10:46:50.502Z,8.03
2022-12-12T10:49:19.272Z,8.47
2022-12-12T10:51:47.946Z,8.63
2022-12-12T10:54:27.016Z,7.67
2022-12-12T10:57:06.230Z,8.37
2022-12-12T10:59:39.920Z,8.40
2022-12-12T11:02:21.406Z,8.37
2022-12-12T11:04:50.153Z,7.77
2022-12-12T11:07:20.271Z,8.27
2022-12-12T11:09:50.735Z,8.10
2022-12-12T11:12:18.169Z,7.70
2022-12-12T11:14:47.608Z,8.03
2022-12-12T11:17:27.169Z,8.07
2022-12-12T11:19:55.598Z,7.43
2022-12-12T11:22:23.086Z,7.30
2022-12-12T11:24:51.204Z,6.57
2022-12-12T11:27:31.920Z,7.73
2022-12-12T11:30:01.656Z,7.40
2022-12-12T11:32:39.822Z,7.90
2022-12-12T11:35:08.764Z,7.53
2022-12-12T11:37:38.877Z,7.43
2022-12-12T11:40:06.736Z,8.23
2022-12-12T11:42:35.155Z,7.53
2022-12-12T11:45:04.864Z,7.00
2022-12-12T11:47:41.036Z,7.33
2022-12-12T11:50:20.924Z,7.77
2022-12-12T11:52:49.385Z,7.57
2022-12-12T11:55:18.417Z,8.23
2022-12-12T11:58:03.428Z,8.33
2022-12-12T12:00:44.454Z,9.07
2022-12-12T12:03:23.152Z,8.43
2022-12-12T12:05:52.292Z,9.10
2022-12-12T12:08:19.610Z,8.43
2022-12-12T12:11:06.029Z,9.03
2022-12-12T12:13:53.222Z,9.30
2022-12-12T12:16:35.747Z,9.30
2022-12-12T12:19:20.288Z,9.20
2022-12-12T12:21:47.766Z,9.30
2022-12-12T12:24:24.943Z,10.23
2022-12-12T12:27:11.130Z,9.67
2022-12-12T12:29:41.157Z,9.97
2022-12-12T12:32:12.127Z,9.50
2022-12-12T12:34:44.788Z,9.87
2022-12-12T12:37:18.018Z,10.00
2022-12-12T12:39:45.496Z,11.67
2022-12-12T12:42:29.828Z,10.30
2022-12-12T12:45:16.120Z,10.40
2022-12-12T12:47:49.105Z,10.47
2022-12-12T12:50:49.142Z,10.57
2022-12-12T12:53:16.516Z,11.73
2022-12-12T12:55:47.505Z,10.70
2022-12-12T12:58:19.087Z,11.40
2022-12-12T13:00:47.944Z,10.40
2022-12-12T13:03:19.725Z,11.07
2022-12-12T13:05:50.460Z,11.60
2022-12-12T13:08:21.851Z,11.97
2022-12-12T13:10:51.251Z,13.23
2022-12-12T13:13:29.740Z,13.33
2022-12-12T13:15:59.744Z,13.40
2022-12-12T13:18:33.449Z,15.20
2022-12-12T13:21:15.584Z,13.40
2022-12-12T13:23:54.952Z,13.20
2022-12-12T13:26:31.118Z,13.73
2022-12-12T13:29:00.646Z,13.37
2022-12-12T13:31:38.072Z,12.93
2022-12-12T13:34:11.785Z,12.90
2022-12-12T13:36:40.303Z,14.10
2022-12-12T13:39:09.207Z,14.07
2022-12-12T13:41:56.961Z,13.70
2022-12-12T13:44:33.420Z,13.77
2022-12-12T13:47:01.130Z,14.10
2022-12-12T13:49:31.697Z,14.93
2022-12-12T13:52:34.942Z,14.17
2022-12-12T13:55:14.550Z,14.63
2022-12-12T13:58:00.056Z,14.40
2022-12-12T14:00:28.694Z,15.90
2022-12-12T14:03:05.464Z,15.10
2022-12-12T14:05:35.069Z,15.70
2022-12-12T14:08:04.421Z,15.23
2022-12-12T14:10:54.840Z,15.57
2022-12-12T14:13:22.598Z,15.77
2022-12-12T14:15:58.742Z,16.97
2022-12-12T14:18:30.284Z,15.57
2022-12-12T14:21:03.435Z,15.83
2022-12-12T14:23:35.522Z,17.17
2022-12-12T14:26:03.899Z,15.37
2022-12-12T14:28:32.345Z,16.30
2022-12-12T14:31:03.704Z,15.33
2022-12-12T14:33:49.500Z,16.57
2022-12-12T14:36:16.837Z,15.70
2022-12-12T14:38:52.625Z,14.97
2022-12-12T14:41:21.438Z,15.80
2022-12-12T14:44:36.900Z,15.17
2022-12-12T14:46:46.182Z,14.00
2022-12-12T14:49:17.539Z,14.67
2022-12-12T14:51:50.324Z,14.83
2022-12-12T14:54:19.968Z,14.60
2022-12-12T14:56:53.216Z,14.03
2022-12-12T14:59:26.817Z,13.70
2022-12-12T15:01:56.345Z,12.63
2022-12-12T15:04:26.402Z,14.37
2022-12-12T15:06:57.614Z,13.83
2022-12-12T15:09:25.838Z,13.17
2022-12-12T15:11:54.424Z,12.93
2022-12-12T15:14:26.362Z,13.13
2022-12-12T15:17:00.127Z,13.63
2022-12-12T15:19:34.776Z,12.77
2022-12-12T15:22:02.307Z,12.87
2022-12-12T15:24:37.744Z,12.60
2022-12-12T15:27:06.016Z,12.93
2022-12-12T15:29:34.362Z,12.73
2022-12-12T15:32:05.937Z,12.93
2022-12-12T15:34:39.129Z,12.47
2022-12-12T15:37:18.456Z,12.83
2022-12-12T15:39:45.847Z,13.30
2022-12-12T15:42:15.350Z,12.60
2022-12-12T15:44:45.016Z,12.47
2022-12-12T15:47:14.821Z,12.00
2022-12-12T15:49:43.548Z,12.13
2022-12-12T15:52:19.566Z,11.93
2022-12-12T15:54:51.547Z,11.97
2022-12-12T15:57:26.334Z,12.37
2022-12-12T15:59:57.095Z,12.00
2022-12-12T16:02:32.948Z,11.33
2022-12-12T16:05:20.221Z,12.97
2022-12-12T16:07:49.928Z,12.40
2022-12-12T16:10:24.643Z,12.70
2022-12-12T16:12:55.708Z,11.67
2022-12-12T16:15:35.249Z,11.33
2022-12-12T16:18:04.809Z,11.80
2022-12-12T16:20:33.088Z,12.00
2022-12-12T16:23:10.904Z,11.10
2022-12-12T16:25:39.410Z,10.93
2022-12-12T16:28:09.056Z,12.00
2022-12-12T16:30:37.674Z,12.00
2022-12-12T16:33:37.159Z,11.70
2022-12-12T16:36:05.997Z,11.53
2022-12-12T16:38:33.573Z,12.03
2022-12-12T16:41:06.862Z,12.47
2022-12-12T16:43:34.313Z,12.30
2022-12-12T16:46:01.640Z,12.93
2022-12-12T16:48:40.105Z,12.33
2022-12-12T16:51:08.947Z,12.73
2022-12-12T16:53:37.036Z,12.30
2022-12-12T16:56:05.296Z,12.67
2022-12-12T16:58:32.861Z,12.93
2022-12-12T17:01:01.783Z,13.37
2022-12-12T17:03:30.526Z,12.40
2022-12-12T17:05:58.973Z,13.17
2022-12-12T17:08:26.927Z,12.70
2022-12-12T17:11:09.951Z,13.50
2022-12-12T17:13:43.131Z,12.73
2022-12-12T17:16:10.533Z,12.70
2022-12-12T17:18:37.901Z,13.07
2022-12-12T17:21:05.582Z,13.87
2022-12-12T17:23:32.965Z,13.23
2022-12-12T17:26:04.295Z,14.98
2022-12-12T17:28:34.338Z,14.00
2022-12-12T17:31:02.118Z,12.47
2022-12-12T17:33:29.424Z,12.37
2022-12-12T17:36:04.645Z,13.60
2022-12-12T17:38:32.130Z,12.03
2022-12-12T17:41:02.924Z,12.27
2022-12-12T17:43:30.384Z,12.93
2022-12-12T17:45:58.837Z,12.90
2022-12-12T17:48:28.474Z,11.53
2022-12-12T17:50:59.416Z,13.13
2022-12-12T17:53:27.407Z,12.10
2022-12-12T17:56:01.540Z,12.77
2022-12-12T17:58:36.562Z,13.03
2022-12-12T18:01:14.253Z,13.40
2022-12-12T18:03:42.268Z,12.43
2022-12-12T18:06:10.372Z,12.60
2022-12-12T18:08:38.144Z,13.63
2022-12-12T18:11:09.586Z,14.00
2022-12-12T18:13:38.656Z,13.00
2022-12-12T18:16:07.051Z,12.07
2022-12-12T18:18:36.687Z,12.97
2022-12-12T18:21:43.393Z,13.93
2022-12-12T18:24:07.061Z,13.57
2022-12-12T18:26:35.567Z,13.33
2022-12-12T18:29:04.349Z,12.47
2022-12-12T18:31:32.141Z,11.53
2022-12-12T18:33:59.525Z,13.83
2022-12-12T18:36:27.776Z,12.93
2022-12-12T18:38:58.796Z,13.47
2022-12-12T18:41:27.525Z,11.60
2022-12-12T18:43:55.454Z,11.90
2022-12-12T18:46:24.712Z,12.40
2022-12-12T18:48:52.172Z,12.60
2022-12-12T18:51:23.819Z,13.03
2022-12-12T18:53:52.383Z,12.67
2022-12-12T18:56:21.174Z,12.23
2022-12-12T18:58:48.476Z,12.40
2022-12-12T19:01:19.966Z,12.17
2022-12-12T19:03:49.841Z,12.50
2022-12-12T19:06:19.217Z,11.53
2022-12-12T19:08:46.533Z,12.23
2022-12-12T19:11:14.307Z,12.47
2022-12-12T19:13:43.026Z,12.87
2022-12-12T19:16:12.509Z,12.80
2022-12-12T19:18:39.883Z,13.00
2022-12-12T19:21:07.209Z,13.00
2022-12-12T19:23:35.012Z,12.90
2022-12-12T19:26:09.450Z,13.07
2022-12-12T19:28:36.948Z,13.07
2022-12-12T19:31:12.207Z,12.20
2022-12-12T19:33:39.641Z,12.70
2022-12-12T19:36:25.714Z,15.67
2022-12-12T19:38:54.224Z,13.57
2022-12-12T19:41:22.381Z,13.87
2022-12-12T19:43:50.622Z,13.70
2022-12-12T19:46:19.435Z,14.23
2022-12-12T19:48:47.402Z,13.83
2022-12-12T19:51:16.176Z,13.40
2022-12-12T19:53:45.060Z,14.40
2022-12-12T19:56:13.518Z,13.73
2022-12-12T19:58:41.322Z,14.27
2022-12-12T20:01:13.431Z,14.53
2022-12-12T20:03:41.336Z,14.33
2022-12-12T20:06:10.003Z,14.17
2022-12-12T20:08:39.072Z,13.70
2022-12-12T20:11:07.798Z,15.40
2022-12-12T20:13:35.286Z,13.87
2022-12-12T20:16:07.331Z,15.20
2022-12-12T20:18:34.781Z,14.63
2022-12-12T20:21:03.512Z,15.33
2022-12-12T20:23:31.399Z,14.93
2022-12-12T20:25:58.925Z,15.03
2022-12-12T20:28:26.226Z,14.87
2022-12-12T20:31:03.543Z,14.90
2022-12-12T20:33:31.199Z,15.40
2022-12-12T20:36:05.507Z,14.80
2022-12-12T20:38:33.773Z,14.53
2022-12-12T20:41:01.280Z,14.97
2022-12-12T20:43:29.818Z,16.47
2022-12-12T20:45:57.300Z,16.00
2022-12-12T20:48:24.599Z,15.13
2022-12-12T20:50:52.030Z,15.43
2022-12-12T20:53:19.326Z,15.33
2022-12-12T20:55:46.607Z,15.70
2022-12-12T20:58:13.890Z,14.00
2022-12-12T21:00:41.261Z,15.40
2022-12-12T21:03:08.623Z,14.10
2022-12-12T21:05:35.928Z,14.60
2022-12-12T21:08:03.485Z,14.40
2022-12-12T21:10:31.789Z,14.60
2022-12-12T21:12:59.076Z,14.97
2022-12-12T21:15:26.444Z,15.63
2022-12-12T21:17:53.767Z,14.87
2022-12-12T21:20:21.071Z,14.73
2022-12-12T21:22:48.462Z,15.23
2022-12-12T21:25:15.984Z,15.17
2022-12-12T21:27:43.907Z,15.80
2022-12-12T21:30:11.367Z,15.57
2022-12-12T21:32:38.700Z,15.57
2022-12-12T21:35:06.187Z,15.00
2022-12-12T21:37:38.629Z,14.37
2022-12-12T21:40:08.307Z,15.10
2022-12-12T21:42:35.607Z,15.80
2022-12-12T21:45:02.994Z,14.93
2022-12-12T21:47:30.332Z,14.30
2022-12-12T21:49:57.581Z,15.17
2022-12-12T21:52:24.893Z,13.60
2022-12-12T21:54:52.237Z,15.70
2022-12-12T21:57:24.522Z,14.43
2022-12-12T21:59:52.243Z,16.17
2022-12-12T22:02:19.521Z,15.47
2022-12-12T22:04:46.883Z,15.43
2022-12-12T22:07:14.246Z,15.90
2022-12-12T22:09:41.906Z,14.07
2022-12-12T22:12:09.432Z,13.87
